sensor_id;sensor_type;location;lat;lon;timestamp;P1;durP1;ratioP1;P2;durP2;ratioP2
12493;SDS011;8260;51.422;6.786;2023-04-24T00:02:25;2.85;;;1.17;;
12493;SDS011;8260;51.422;6.786;2023-04-24T00:04:54;1.33;;;1.23;;
12493;SDS011;8260;51.422;6.786;2023-04-24T00:07:23;1.50;;;1.40;;
12493;SDS011;8260;51.422;6.786;2023-04-24T00:09:51;1.55;;;1.27;;
12493;SDS011;8260;51.422;6.786;2023-04-24T00:12:20;1.45;;;1.35;;
12493;SDS011;8260;51.422;6.786;2023-04-24T00:14:49;1.83;;;1.30;;
12493;SDS011;8260;51.422;6.786;2023-04-24T00:17:19;3.15;;;1.40;;
12493;SDS011;8260;51.422;6.786;2023-04-24T00:19:48;1.73;;;1.45;;
12493;SDS011;8260;51.422;6.786;2023-04-24T00:22:17;2.28;;;1.50;;
12493;SDS011;8260;51.422;6.786;2023-04-24T00:24:47;2.08;;;1.60;;
12493;SDS011;8260;51.422;6.786;2023-04-24T00:27:15;1.40;;;1.30;;
12493;SDS011;8260;51.422;6.786;2023-04-24T00:29:44;2.47;;;1.70;;
12493;SDS011;8260;51.422;6.786;2023-04-24T00:32:12;2.00;;;1.80;;
12493;SDS011;8260;51.422;6.786;2023-04-24T00:34:43;3.72;;;1.55;;
12493;SDS011;8260;51.422;6.786;2023-04-24T00:37:11;2.00;;;1.80;;
12493;SDS011;8260;51.422;6.786;2023-04-24T00:39:40;2.25;;;1.80;;
12493;SDS011;8260;51.422;6.786;2023-04-24T00:42:09;3.42;;;2.80;;
12493;SDS011;8260;51.422;6.786;2023-04-24T00:44:38;4.35;;;3.33;;
12493;SDS011;8260;51.422;6.786;2023-04-24T00:47:07;4.30;;;3.28;;
12493;SDS011;8260;51.422;6.786;2023-04-24T00:49:35;4.05;;;3.33;;
12493;SDS011;8260;51.422;6.786;2023-04-24T00:52:05;5.15;;;2.50;;
12493;SDS011;8260;51.422;6.786;2023-04-24T00:54:35;3.10;;;2.80;;
12493;SDS011;8260;51.422;6.786;2023-04-24T00:57:03;3.50;;;3.17;;
12493;SDS011;8260;51.422;6.786;2023-04-24T00:59:32;4.22;;;3.53;;
12493;SDS011;8260;51.422;6.786;2023-04-24T01:02:02;5.22;;;4.28;;
12493;SDS011;8260;51.422;6.786;2023-04-24T01:04:30;7.55;;;5.13;;
12493;SDS011;8260;51.422;6.786;2023-04-24T01:06:59;6.47;;;5.10;;
12493;SDS011;8260;51.422;6.786;2023-04-24T01:09:29;8.10;;;6.40;;
12493;SDS011;8260;51.422;6.786;2023-04-24T01:12:01;9.00;;;6.50;;
12493;SDS011;8260;51.422;6.786;2023-04-24T01:14:29;7.75;;;6.40;;
12493;SDS011;8260;51.422;6.786;2023-04-24T01:16:58;7.32;;;5.90;;
12493;SDS011;8260;51.422;6.786;2023-04-24T01:19:27;7.55;;;5.80;;
12493;SDS011;8260;51.422;6.786;2023-04-24T01:21:57;10.25;;;6.57;;
12493;SDS011;8260;51.422;6.786;2023-04-24T01:24:27;7.38;;;6.60;;
12493;SDS011;8260;51.422;6.786;2023-04-24T01:26:56;10.18;;;7.05;;
12493;SDS011;8260;51.422;6.786;2023-04-24T01:29:25;8.52;;;7.15;;
12493;SDS011;8260;51.422;6.786;2023-04-24T01:31:53;10.30;;;7.45;;
12493;SDS011;8260;51.422;6.786;2023-04-24T01:34:24;14.60;;;8.40;;
12493;SDS011;8260;51.422;6.786;2023-04-24T01:36:53;11.68;;;7.53;;
12493;SDS011;8260;51.422;6.786;2023-04-24T01:39:22;12.85;;;7.10;;
12493;SDS011;8260;51.422;6.786;2023-04-24T01:41:53;6.85;;;5.35;;
12493;SDS011;8260;51.422;6.786;2023-04-24T01:44:21;7.57;;;5.50;;
12493;SDS011;8260;51.422;6.786;2023-04-24T01:46:50;5.93;;;5.32;;
12493;SDS011;8260;51.422;6.786;2023-04-24T01:49:20;6.95;;;5.50;;
12493;SDS011;8260;51.422;6.786;2023-04-24T01:51:49;6.13;;;5.00;;
12493;SDS011;8260;51.422;6.786;2023-04-24T01:54:17;6.60;;;6.00;;
12493;SDS011;8260;51.422;6.786;2023-04-24T01:56:46;10.48;;;6.50;;
12493;SDS011;8260;51.422;6.786;2023-04-24T01:59:16;7.78;;;6.32;;
12493;SDS011;8260;51.422;6.786;2023-04-24T02:01:45;9.25;;;6.18;;
12493;SDS011;8260;51.422;6.786;2023-04-24T02:04:14;11.07;;;7.10;;
12493;SDS011;8260;51.422;6.786;2023-04-24T02:06:43;10.57;;;7.57;;
12493;SDS011;8260;51.422;6.786;2023-04-24T02:09:11;10.32;;;7.35;;
12493;SDS011;8260;51.422;6.786;2023-04-24T02:11:40;10.43;;;7.35;;
12493;SDS011;8260;51.422;6.786;2023-04-24T02:14:09;8.52;;;7.15;;
12493;SDS011;8260;51.422;6.786;2023-04-24T02:16:39;11.07;;;7.53;;
12493;SDS011;8260;51.422;6.786;2023-04-24T02:19:07;10.13;;;7.75;;
12493;SDS011;8260;51.422;6.786;2023-04-24T02:21:36;9.38;;;7.70;;
12493;SDS011;8260;51.422;6.786;2023-04-24T02:24:04;10.98;;;7.65;;
12493;SDS011;8260;51.422;6.786;2023-04-24T02:26:33;11.20;;;7.57;;
12493;SDS011;8260;51.422;6.786;2023-04-24T02:29:02;11.23;;;8.55;;
12493;SDS011;8260;51.422;6.786;2023-04-24T02:31:30;15.65;;;8.25;;
12493;SDS011;8260;51.422;6.786;2023-04-24T02:34:00;11.18;;;8.52;;
12493;SDS011;8260;51.422;6.786;2023-04-24T02:36:29;11.48;;;8.75;;
12493;SDS011;8260;51.422;6.786;2023-04-24T02:38:57;15.25;;;9.90;;
12493;SDS011;8260;51.422;6.786;2023-04-24T02:41:27;14.90;;;10.95;;
12493;SDS011;8260;51.422;6.786;2023-04-24T02:43:59;17.15;;;13.13;;
12493;SDS011;8260;51.422;6.786;2023-04-24T02:46:27;21.65;;;14.18;;
12493;SDS011;8260;51.422;6.786;2023-04-24T02:48:56;23.00;;;12.95;;
12493;SDS011;8260;51.422;6.786;2023-04-24T02:51:26;14.30;;;10.88;;
12493;SDS011;8260;51.422;6.786;2023-04-24T02:53:55;13.38;;;11.25;;
12493;SDS011;8260;51.422;6.786;2023-04-24T02:56:23;14.43;;;11.43;;
12493;SDS011;8260;51.422;6.786;2023-04-24T02:58:52;15.38;;;10.90;;
12493;SDS011;8260;51.422;6.786;2023-04-24T03:01:21;15.50;;;10.77;;
12493;SDS011;8260;51.422;6.786;2023-04-24T03:03:49;17.30;;;11.73;;
12493;SDS011;8260;51.422;6.786;2023-04-24T03:06:18;15.73;;;10.50;;
12493;SDS011;8260;51.422;6.786;2023-04-24T03:08:49;16.98;;;11.65;;
12493;SDS011;8260;51.422;6.786;2023-04-24T03:11:17;16.85;;;11.20;;
12493;SDS011;8260;51.422;6.786;2023-04-24T03:13:46;12.88;;;10.77;;
12493;SDS011;8260;51.422;6.786;2023-04-24T03:16:14;16.15;;;11.45;;
12493;SDS011;8260;51.422;6.786;2023-04-24T03:18:43;15.93;;;11.23;;
12493;SDS011;8260;51.422;6.786;2023-04-24T03:21:11;18.00;;;11.48;;
12493;SDS011;8260;51.422;6.786;2023-04-24T03:23:40;19.25;;;11.75;;
12493;SDS011;8260;51.422;6.786;2023-04-24T03:26:10;15.27;;;10.73;;
12493;SDS011;8260;51.422;6.786;2023-04-24T03:28:38;17.67;;;12.32;;
12493;SDS011;8260;51.422;6.786;2023-04-24T03:31:07;18.67;;;11.43;;
12493;SDS011;8260;51.422;6.786;2023-04-24T03:33:35;18.05;;;11.13;;
12493;SDS011;8260;51.422;6.786;2023-04-24T03:36:04;18.27;;;11.88;;
12493;SDS011;8260;51.422;6.786;2023-04-24T03:38:32;19.77;;;12.18;;
12493;SDS011;8260;51.422;6.786;2023-04-24T03:41:01;17.08;;;11.57;;
12493;SDS011;8260;51.422;6.786;2023-04-24T03:43:31;18.40;;;12.18;;
12493;SDS011;8260;51.422;6.786;2023-04-24T03:46:01;17.65;;;12.70;;
12493;SDS011;8260;51.422;6.786;2023-04-24T03:48:29;14.60;;;11.00;;
12493;SDS011;8260;51.422;6.786;2023-04-24T03:50:58;20.38;;;11.50;;
12493;SDS011;8260;51.422;6.786;2023-04-24T03:53:26;17.70;;;11.65;;
12493;SDS011;8260;51.422;6.786;2023-04-24T03:55:55;19.92;;;11.50;;
12493;SDS011;8260;51.422;6.786;2023-04-24T03:58:23;15.20;;;12.55;;
12493;SDS011;8260;51.422;6.786;2023-04-24T04:00:53;15.18;;;11.20;;
12493;SDS011;8260;51.422;6.786;2023-04-24T04:03:23;17.27;;;12.02;;
12493;SDS011;8260;51.422;6.786;2023-04-24T04:05:52;15.35;;;11.95;;
12493;SDS011;8260;51.422;6.786;2023-04-24T04:08:20;13.50;;;10.82;;
12493;SDS011;8260;51.422;6.786;2023-04-24T04:10:49;13.35;;;10.77;;
12493;SDS011;8260;51.422;6.786;2023-04-24T04:13:18;19.30;;;11.02;;
12493;SDS011;8260;51.422;6.786;2023-04-24T04:15:46;17.55;;;10.55;;
12493;SDS011;8260;51.422;6.786;2023-04-24T04:18:16;13.80;;;10.32;;
12493;SDS011;8260;51.422;6.786;2023-04-24T04:20:45;14.20;;;10.20;;
12493;SDS011;8260;51.422;6.786;2023-04-24T04:23:13;14.10;;;9.77;;
12493;SDS011;8260;51.422;6.786;2023-04-24T04:25:42;13.93;;;9.85;;
12493;SDS011;8260;51.422;6.786;2023-04-24T04:28:10;13.88;;;10.00;;
12493;SDS011;8260;51.422;6.786;2023-04-24T04:30:39;14.15;;;10.00;;
12493;SDS011;8260;51.422;6.786;2023-04-24T04:33:07;13.07;;;10.27;;
12493;SDS011;8260;51.422;6.786;2023-04-24T04:35:38;18.30;;;11.07;;
12493;SDS011;8260;51.422;6.786;2023-04-24T04:38:07;14.00;;;11.13;;
12493;SDS011;8260;51.422;6.786;2023-04-24T04:40:37;13.80;;;9.30;;
12493;SDS011;8260;51.422;6.786;2023-04-24T04:43:06;13.82;;;9.90;;
12493;SDS011;8260;51.422;6.786;2023-04-24T04:45:35;12.80;;;9.00;;
12493;SDS011;8260;51.422;6.786;2023-04-24T04:48:05;16.20;;;10.32;;
12493;SDS011;8260;51.422;6.786;2023-04-24T04:50:35;12.70;;;9.45;;
12493;SDS011;8260;51.422;6.786;2023-04-24T04:53:05;11.38;;;8.90;;
12493;SDS011;8260;51.422;6.786;2023-04-24T04:55:34;14.18;;;9.98;;
12493;SDS011;8260;51.422;6.786;2023-04-24T04:58:02;13.07;;;9.52;;
12493;SDS011;8260;51.422;6.786;2023-04-24T05:00:32;11.50;;;9.18;;
12493;SDS011;8260;51.422;6.786;2023-04-24T05:03:02;12.25;;;8.82;;
12493;SDS011;8260;51.422;6.786;2023-04-24T05:05:45;12.93;;;8.68;;
12493;SDS011;8260;51.422;6.786;2023-04-24T05:08:15;9.45;;;8.07;;
12493;SDS011;8260;51.422;6.786;2023-04-24T05:10:53;10.65;;;8.48;;
12493;SDS011;8260;51.422;6.786;2023-04-24T05:13:21;9.80;;;8.68;;
12493;SDS011;8260;51.422;6.786;2023-04-24T05:16:06;11.65;;;9.20;;
12493;SDS011;8260;51.422;6.786;2023-04-24T05:18:34;11.88;;;9.50;;
12493;SDS011;8260;51.422;6.786;2023-04-24T05:21:03;11.43;;;10.23;;
12493;SDS011;8260;51.422;6.786;2023-04-24T05:23:32;14.25;;;10.25;;
12493;SDS011;8260;51.422;6.786;2023-04-24T05:26:01;12.52;;;10.98;;
12493;SDS011;8260;51.422;6.786;2023-04-24T05:28:32;15.77;;;11.98;;
12493;SDS011;8260;51.422;6.786;2023-04-24T05:31:03;14.45;;;11.95;;
12493;SDS011;8260;51.422;6.786;2023-04-24T05:33:32;14.35;;;10.20;;
12493;SDS011;8260;51.422;6.786;2023-04-24T05:36:01;15.43;;;10.57;;
12493;SDS011;8260;51.422;6.786;2023-04-24T05:38:30;14.45;;;11.43;;
12493;SDS011;8260;51.422;6.786;2023-04-24T05:41:00;14.07;;;10.35;;
12493;SDS011;8260;51.422;6.786;2023-04-24T05:43:28;14.88;;;11.10;;
12493;SDS011;8260;51.422;6.786;2023-04-24T05:45:57;15.18;;;11.77;;
12493;SDS011;8260;51.422;6.786;2023-04-24T05:48:25;16.50;;;10.68;;
12493;SDS011;8260;51.422;6.786;2023-04-24T05:50:54;13.02;;;9.82;;
12493;SDS011;8260;51.422;6.786;2023-04-24T05:53:22;12.35;;;9.73;;
12493;SDS011;8260;51.422;6.786;2023-04-24T05:55:51;14.13;;;9.35;;
12493;SDS011;8260;51.422;6.786;2023-04-24T05:58:20;12.45;;;10.30;;
12493;SDS011;8260;51.422;6.786;2023-04-24T06:00:49;13.07;;;9.25;;
12493;SDS011;8260;51.422;6.786;2023-04-24T06:03:18;10.00;;;8.73;;
12493;SDS011;8260;51.422;6.786;2023-04-24T06:05:47;11.20;;;9.07;;
12493;SDS011;8260;51.422;6.786;2023-04-24T06:08:15;12.40;;;9.27;;
12493;SDS011;8260;51.422;6.786;2023-04-24T06:10:44;9.68;;;8.63;;
12493;SDS011;8260;51.422;6.786;2023-04-24T06:13:12;13.52;;;9.07;;
12493;SDS011;8260;51.422;6.786;2023-04-24T06:15:42;12.35;;;9.93;;
12493;SDS011;8260;51.422;6.786;2023-04-24T06:18:11;12.65;;;9.88;;
12493;SDS011;8260;51.422;6.786;2023-04-24T06:20:40;13.88;;;9.77;;
12493;SDS011;8260;51.422;6.786;2023-04-24T06:23:08;12.70;;;9.18;;
12493;SDS011;8260;51.422;6.786;2023-04-24T06:25:37;11.48;;;9.32;;
12493;SDS011;8260;51.422;6.786;2023-04-24T06:28:06;12.02;;;8.73;;
12493;SDS011;8260;51.422;6.786;2023-04-24T06:30:34;11.00;;;9.02;;
12493;SDS011;8260;51.422;6.786;2023-04-24T06:33:04;10.55;;;8.95;;
12493;SDS011;8260;51.422;6.786;2023-04-24T06:35:45;10.02;;;8.80;;
12493;SDS011;8260;51.422;6.786;2023-04-24T06:38:14;9.00;;;7.88;;
12493;SDS011;8260;51.422;6.786;2023-04-24T06:40:43;11.18;;;8.13;;
12493;SDS011;8260;51.422;6.786;2023-04-24T06:43:11;10.43;;;8.52;;
12493;SDS011;8260;51.422;6.786;2023-04-24T06:45:41;10.13;;;7.97;;
12493;SDS011;8260;51.422;6.786;2023-04-24T06:48:12;9.57;;;8.15;;
12493;SDS011;8260;51.422;6.786;2023-04-24T06:50:41;9.18;;;7.45;;
12493;SDS011;8260;51.422;6.786;2023-04-24T06:53:09;10.27;;;8.40;;
12493;SDS011;8260;51.422;6.786;2023-04-24T06:55:40;10.10;;;7.93;;
12493;SDS011;8260;51.422;6.786;2023-04-24T06:58:09;12.10;;;9.02;;
12493;SDS011;8260;51.422;6.786;2023-04-24T07:00:38;10.57;;;8.48;;
12493;SDS011;8260;51.422;6.786;2023-04-24T07:03:06;11.02;;;7.72;;
12493;SDS011;8260;51.422;6.786;2023-04-24T07:05:36;13.18;;;9.65;;
12493;SDS011;8260;51.422;6.786;2023-04-24T07:08:05;13.05;;;8.65;;
12493;SDS011;8260;51.422;6.786;2023-04-24T07:10:35;13.85;;;10.30;;
12493;SDS011;8260;51.422;6.786;2023-04-24T07:13:03;12.20;;;8.80;;
12493;SDS011;8260;51.422;6.786;2023-04-24T07:15:33;11.63;;;8.60;;
12493;SDS011;8260;51.422;6.786;2023-04-24T07:18:01;7.60;;;6.65;;
12493;SDS011;8260;51.422;6.786;2023-04-24T07:20:31;6.00;;;5.25;;
12493;SDS011;8260;51.422;6.786;2023-04-24T07:23:02;6.60;;;5.85;;
12493;SDS011;8260;51.422;6.786;2023-04-24T07:25:30;6.95;;;6.13;;
12493;SDS011;8260;51.422;6.786;2023-04-24T07:27:59;5.57;;;4.72;;
12493;SDS011;8260;51.422;6.786;2023-04-24T07:30:27;5.03;;;4.45;;
12493;SDS011;8260;51.422;6.786;2023-04-24T07:32:56;4.90;;;4.35;;
12493;SDS011;8260;51.422;6.786;2023-04-24T07:35:24;4.20;;;3.78;;
12493;SDS011;8260;51.422;6.786;2023-04-24T07:37:53;3.42;;;2.28;;
12493;SDS011;8260;51.422;6.786;2023-04-24T07:40:23;3.63;;;1.88;;
12493;SDS011;8260;51.422;6.786;2023-04-24T07:42:51;2.20;;;1.15;;
12493;SDS011;8260;51.422;6.786;2023-04-24T07:45:20;1.70;;;1.60;;
12493;SDS011;8260;51.422;6.786;2023-04-24T07:47:49;3.03;;;2.00;;
12493;SDS011;8260;51.422;6.786;2023-04-24T07:50:18;5.53;;;2.42;;
12493;SDS011;8260;51.422;6.786;2023-04-24T07:52:47;3.22;;;2.65;;
12493;SDS011;8260;51.422;6.786;2023-04-24T07:55:15;3.90;;;2.58;;
12493;SDS011;8260;51.422;6.786;2023-04-24T07:57:49;6.03;;;2.65;;
12493;SDS011;8260;51.422;6.786;2023-04-24T08:00:20;4.15;;;2.35;;
12493;SDS011;8260;51.422;6.786;2023-04-24T08:02:48;2.85;;;2.25;;
12493;SDS011;8260;51.422;6.786;2023-04-24T08:05:17;3.13;;;1.95;;
12493;SDS011;8260;51.422;6.786;2023-04-24T08:07:46;1.90;;;1.70;;
12493;SDS011;8260;51.422;6.786;2023-04-24T08:10:16;1.88;;;1.75;;
12493;SDS011;8260;51.422;6.786;2023-04-24T08:12:45;1.92;;;1.73;;
12493;SDS011;8260;51.422;6.786;2023-04-24T08:15:15;1.83;;;1.73;;
12493;SDS011;8260;51.422;6.786;2023-04-24T08:17:43;1.80;;;1.50;;
12493;SDS011;8260;51.422;6.786;2023-04-24T08:20:12;2.63;;;2.03;;
12493;SDS011;8260;51.422;6.786;2023-04-24T08:22:42;2.42;;;2.22;;
12493;SDS011;8260;51.422;6.786;2023-04-24T08:25:14;2.40;;;2.20;;
12493;SDS011;8260;51.422;6.786;2023-04-24T08:27:42;4.95;;;2.50;;
12493;SDS011;8260;51.422;6.786;2023-04-24T08:30:11;3.03;;;2.55;;
12493;SDS011;8260;51.422;6.786;2023-04-24T08:32:41;2.53;;;2.30;;
12493;SDS011;8260;51.422;6.786;2023-04-24T08:35:09;3.25;;;2.15;;
12493;SDS011;8260;51.422;6.786;2023-04-24T08:37:38;4.35;;;2.30;;
12493;SDS011;8260;51.422;6.786;2023-04-24T08:40:12;2.95;;;1.92;;
12493;SDS011;8260;51.422;6.786;2023-04-24T08:42:41;1.70;;;1.60;;
12493;SDS011;8260;51.422;6.786;2023-04-24T08:45:11;2.85;;;1.60;;
12493;SDS011;8260;51.422;6.786;2023-04-24T08:47:41;1.80;;;1.70;;
12493;SDS011;8260;51.422;6.786;2023-04-24T08:50:10;2.42;;;1.98;;
12493;SDS011;8260;51.422;6.786;2023-04-24T08:52:39;2.50;;;1.52;;
12493;SDS011;8260;51.422;6.786;2023-04-24T08:55:08;2.70;;;1.50;;
12493;SDS011;8260;51.422;6.786;2023-04-24T08:57:37;1.63;;;1.45;;
12493;SDS011;8260;51.422;6.786;2023-04-24T09:00:07;1.98;;;1.67;;
12493;SDS011;8260;51.422;6.786;2023-04-24T09:02:39;2.55;;;2.30;;
12493;SDS011;8260;51.422;6.786;2023-04-24T09:05:09;6.75;;;4.63;;
12493;SDS011;8260;51.422;6.786;2023-04-24T09:07:38;7.03;;;5.07;;
12493;SDS011;8260;51.422;6.786;2023-04-24T09:10:07;10.07;;;6.88;;
12493;SDS011;8260;51.422;6.786;2023-04-24T09:12:36;9.77;;;7.50;;
12493;SDS011;8260;51.422;6.786;2023-04-24T09:15:05;12.60;;;8.40;;
12493;SDS011;8260;51.422;6.786;2023-04-24T09:17:36;13.10;;;9.93;;
12493;SDS011;8260;51.422;6.786;2023-04-24T09:20:05;11.20;;;9.00;;
12493;SDS011;8260;51.422;6.786;2023-04-24T09:22:36;15.73;;;10.65;;
12493;SDS011;8260;51.422;6.786;2023-04-24T09:25:05;12.40;;;8.73;;
12493;SDS011;8260;51.422;6.786;2023-04-24T09:27:34;11.20;;;9.15;;
12493;SDS011;8260;51.422;6.786;2023-04-24T09:30:03;8.80;;;7.78;;
12493;SDS011;8260;51.422;6.786;2023-04-24T09:32:35;7.68;;;6.72;;
12493;SDS011;8260;51.422;6.786;2023-04-24T09:35:05;9.10;;;7.03;;
12493;SDS011;8260;51.422;6.786;2023-04-24T09:37:39;9.00;;;7.28;;
12493;SDS011;8260;51.422;6.786;2023-04-24T09:40:12;11.70;;;9.10;;
12493;SDS011;8260;51.422;6.786;2023-04-24T09:42:45;12.52;;;9.38;;
12493;SDS011;8260;51.422;6.786;2023-04-24T09:45:14;17.33;;;10.02;;
12493;SDS011;8260;51.422;6.786;2023-04-24T09:47:44;22.15;;;12.55;;
12493;SDS011;8260;51.422;6.786;2023-04-24T09:50:13;15.73;;;10.23;;
12493;SDS011;8260;51.422;6.786;2023-04-24T09:52:47;19.77;;;9.63;;
12493;SDS011;8260;51.422;6.786;2023-04-24T09:55:24;24.77;;;12.07;;
12493;SDS011;8260;51.422;6.786;2023-04-24T09:57:54;22.80;;;12.13;;
12493;SDS011;8260;51.422;6.786;2023-04-24T10:00:23;22.95;;;13.70;;
12493;SDS011;8260;51.422;6.786;2023-04-24T10:02:56;25.02;;;12.05;;
12493;SDS011;8260;51.422;6.786;2023-04-24T10:05:28;24.45;;;11.18;;
12493;SDS011;8260;51.422;6.786;2023-04-24T10:07:59;24.05;;;12.13;;
12493;SDS011;8260;51.422;6.786;2023-04-24T10:10:29;13.80;;;9.27;;
12493;SDS011;8260;51.422;6.786;2023-04-24T10:12:58;19.25;;;10.07;;
12493;SDS011;8260;51.422;6.786;2023-04-24T10:15:27;20.70;;;11.13;;
12493;SDS011;8260;51.422;6.786;2023-04-24T10:17:57;30.42;;;12.15;;
12493;SDS011;8260;51.422;6.786;2023-04-24T10:20:26;25.95;;;12.68;;
12493;SDS011;8260;51.422;6.786;2023-04-24T10:22:57;26.42;;;11.73;;
12493;SDS011;8260;51.422;6.786;2023-04-24T10:25:27;19.35;;;11.23;;
12493;SDS011;8260;51.422;6.786;2023-04-24T10:27:56;18.45;;;10.35;;
12493;SDS011;8260;51.422;6.786;2023-04-24T10:30:26;24.98;;;10.23;;
12493;SDS011;8260;51.422;6.786;2023-04-24T10:32:55;40.65;;;13.20;;
12493;SDS011;8260;51.422;6.786;2023-04-24T10:35:24;19.48;;;8.57;;
12493;SDS011;8260;51.422;6.786;2023-04-24T10:37:54;15.02;;;8.65;;
12493;SDS011;8260;51.422;6.786;2023-04-24T10:40:26;15.68;;;7.38;;
12493;SDS011;8260;51.422;6.786;2023-04-24T10:42:55;12.30;;;7.15;;
12493;SDS011;8260;51.422;6.786;2023-04-24T10:45:24;13.30;;;6.53;;
12493;SDS011;8260;51.422;6.786;2023-04-24T10:47:56;14.38;;;6.00;;
12493;SDS011;8260;51.422;6.786;2023-04-24T10:50:41;15.48;;;6.30;;
12493;SDS011;8260;51.422;6.786;2023-04-24T10:53:15;10.68;;;6.22;;
12493;SDS011;8260;51.422;6.786;2023-04-24T10:55:47;16.05;;;7.22;;
12493;SDS011;8260;51.422;6.786;2023-04-24T10:58:21;15.27;;;6.68;;
12493;SDS011;8260;51.422;6.786;2023-04-24T11:00:55;12.95;;;6.82;;
12493;SDS011;8260;51.422;6.786;2023-04-24T11:03:25;12.00;;;6.90;;
12493;SDS011;8260;51.422;6.786;2023-04-24T11:05:56;15.43;;;7.03;;
12493;SDS011;8260;51.422;6.786;2023-04-24T11:08:26;14.82;;;7.05;;
12493;SDS011;8260;51.422;6.786;2023-04-24T11:10:58;12.77;;;7.45;;
12493;SDS011;8260;51.422;6.786;2023-04-24T11:13:28;13.32;;;7.85;;
12493;SDS011;8260;51.422;6.786;2023-04-24T11:16:19;13.75;;;6.82;;
12493;SDS011;8260;51.422;6.786;2023-04-24T11:18:50;9.95;;;6.57;;
12493;SDS011;8260;51.422;6.786;2023-04-24T11:21:21;13.68;;;5.85;;
12493;SDS011;8260;51.422;6.786;2023-04-24T11:23:50;11.70;;;6.32;;
12493;SDS011;8260;51.422;6.786;2023-04-24T11:26:22;11.73;;;5.10;;
12493;SDS011;8260;51.422;6.786;2023-04-24T11:29:06;10.20;;;5.32;;
12493;SDS011;8260;51.422;6.786;2023-04-24T11:31:35;7.80;;;4.28;;
12493;SDS011;8260;51.422;6.786;2023-04-24T11:34:06;8.82;;;4.57;;
12493;SDS011;8260;51.422;6.786;2023-04-24T11:36:34;8.02;;;4.40;;
12493;SDS011;8260;51.422;6.786;2023-04-24T11:39:03;8.38;;;4.28;;
12493;SDS011;8260;51.422;6.786;2023-04-24T11:41:34;9.95;;;4.65;;
12493;SDS011;8260;51.422;6.786;2023-04-24T11:44:03;9.63;;;4.75;;
12493;SDS011;8260;51.422;6.786;2023-04-24T11:46:32;13.88;;;4.57;;
12493;SDS011;8260;51.422;6.786;2023-04-24T11:49:01;13.30;;;4.97;;
12493;SDS011;8260;51.422;6.786;2023-04-24T11:51:30;14.45;;;4.72;;
12493;SDS011;8260;51.422;6.786;2023-04-24T11:54:13;6.18;;;4.57;;
12493;SDS011;8260;51.422;6.786;2023-04-24T11:56:45;10.23;;;5.50;;
12493;SDS011;8260;51.422;6.786;2023-04-24T11:59:16;11.20;;;5.85;;
12493;SDS011;8260;51.422;6.786;2023-04-24T12:01:45;12.90;;;5.60;;
12493;SDS011;8260;51.422;6.786;2023-04-24T12:04:15;10.95;;;5.40;;
12493;SDS011;8260;51.422;6.786;2023-04-24T12:06:59;10.05;;;5.63;;
12493;SDS011;8260;51.422;6.786;2023-04-24T12:09:28;8.93;;;6.28;;
12493;SDS011;8260;51.422;6.786;2023-04-24T12:11:58;10.60;;;5.97;;
12493;SDS011;8260;51.422;6.786;2023-04-24T12:14:29;8.25;;;4.97;;
12493;SDS011;8260;51.422;6.786;2023-04-24T12:16:58;8.80;;;5.43;;
12493;SDS011;8260;51.422;6.786;2023-04-24T12:19:27;6.80;;;4.72;;
12493;SDS011;8260;51.422;6.786;2023-04-24T12:22:00;7.55;;;4.15;;
12493;SDS011;8260;51.422;6.786;2023-04-24T12:24:30;9.52;;;4.18;;
12493;SDS011;8260;51.422;6.786;2023-04-24T12:27:01;7.05;;;3.90;;
12493;SDS011;8260;51.422;6.786;2023-04-24T12:29:29;6.88;;;4.03;;
12493;SDS011;8260;51.422;6.786;2023-04-24T12:31:58;7.82;;;4.07;;
12493;SDS011;8260;51.422;6.786;2023-04-24T12:34:27;5.40;;;3.55;;
12493;SDS011;8260;51.422;6.786;2023-04-24T12:36:56;9.73;;;4.55;;
12493;SDS011;8260;51.422;6.786;2023-04-24T12:39:25;10.27;;;5.57;;
12493;SDS011;8260;51.422;6.786;2023-04-24T12:41:54;18.42;;;6.00;;
12493;SDS011;8260;51.422;6.786;2023-04-24T12:44:32;10.00;;;5.43;;
12493;SDS011;8260;51.422;6.786;2023-04-24T12:47:03;5.95;;;3.70;;
12493;SDS011;8260;51.422;6.786;2023-04-24T12:49:32;10.98;;;4.40;;
12493;SDS011;8260;51.422;6.786;2023-04-24T12:52:00;7.18;;;3.30;;
12493;SDS011;8260;51.422;6.786;2023-04-24T12:54:31;6.30;;;3.10;;
12493;SDS011;8260;51.422;6.786;2023-04-24T12:57:00;5.53;;;3.08;;
12493;SDS011;8260;51.422;6.786;2023-04-24T12:59:33;3.60;;;2.63;;
12493;SDS011;8260;51.422;6.786;2023-04-24T13:02:02;6.97;;;3.55;;
12493;SDS011;8260;51.422;6.786;2023-04-24T13:04:30;5.22;;;2.30;;
12493;SDS011;8260;51.422;6.786;2023-04-24T13:06:59;5.68;;;2.92;;
12493;SDS011;8260;51.422;6.786;2023-04-24T13:09:28;4.03;;;2.35;;
12493;SDS011;8260;51.422;6.786;2023-04-24T13:11:56;4.35;;;2.70;;
12493;SDS011;8260;51.422;6.786;2023-04-24T13:14:25;3.33;;;1.73;;
12493;SDS011;8260;51.422;6.786;2023-04-24T13:16:55;4.68;;;1.67;;
12493;SDS011;8260;51.422;6.786;2023-04-24T13:19:24;3.13;;;2.20;;
12493;SDS011;8260;51.422;6.786;2023-04-24T13:21:54;4.05;;;2.10;;
12493;SDS011;8260;51.422;6.786;2023-04-24T13:24:22;4.20;;;1.98;;
12493;SDS011;8260;51.422;6.786;2023-04-24T13:26:52;4.05;;;2.30;;
12493;SDS011;8260;51.422;6.786;2023-04-24T13:29:22;3.78;;;2.17;;
12493;SDS011;8260;51.422;6.786;2023-04-24T13:31:51;3.95;;;1.75;;
12493;SDS011;8260;51.422;6.786;2023-04-24T13:34:25;2.97;;;1.83;;
12493;SDS011;8260;51.422;6.786;2023-04-24T13:36:54;2.50;;;1.80;;
12493;SDS011;8260;51.422;6.786;2023-04-24T13:39:23;2.00;;;1.80;;
12493;SDS011;8260;51.422;6.786;2023-04-24T13:41:52;6.20;;;2.13;;
12493;SDS011;8260;51.422;6.786;2023-04-24T13:44:21;4.63;;;2.30;;
12493;SDS011;8260;51.422;6.786;2023-04-24T13:46:51;3.70;;;2.22;;
12493;SDS011;8260;51.422;6.786;2023-04-24T13:49:20;3.20;;;1.90;;
12493;SDS011;8260;51.422;6.786;2023-04-24T13:51:52;2.33;;;1.60;;
12493;SDS011;8260;51.422;6.786;2023-04-24T13:54:21;5.55;;;2.50;;
12493;SDS011;8260;51.422;6.786;2023-04-24T13:56:52;4.53;;;2.20;;
12493;SDS011;8260;51.422;6.786;2023-04-24T13:59:20;5.80;;;2.53;;
12493;SDS011;8260;51.422;6.786;2023-04-24T14:01:49;4.75;;;2.22;;
12493;SDS011;8260;51.422;6.786;2023-04-24T14:04:18;4.68;;;1.90;;
12493;SDS011;8260;51.422;6.786;2023-04-24T14:06:46;5.07;;;2.40;;
12493;SDS011;8260;51.422;6.786;2023-04-24T14:09:16;3.60;;;1.92;;
12493;SDS011;8260;51.422;6.786;2023-04-24T14:11:45;4.00;;;2.30;;
12493;SDS011;8260;51.422;6.786;2023-04-24T14:14:14;2.97;;;2.78;;
12493;SDS011;8260;51.422;6.786;2023-04-24T14:16:42;2.88;;;2.47;;
12493;SDS011;8260;51.422;6.786;2023-04-24T14:19:11;3.63;;;2.10;;
12493;SDS011;8260;51.422;6.786;2023-04-24T14:21:39;3.42;;;2.30;;
12493;SDS011;8260;51.422;6.786;2023-04-24T14:24:08;3.20;;;2.58;;
12493;SDS011;8260;51.422;6.786;2023-04-24T14:26:38;3.33;;;2.42;;
12493;SDS011;8260;51.422;6.786;2023-04-24T14:29:06;2.28;;;2.08;;
12493;SDS011;8260;51.422;6.786;2023-04-24T14:31:40;4.68;;;2.88;;
12493;SDS011;8260;51.422;6.786;2023-04-24T14:34:09;2.88;;;2.42;;
12493;SDS011;8260;51.422;6.786;2023-04-24T14:36:37;2.58;;;2.15;;
12493;SDS011;8260;51.422;6.786;2023-04-24T14:39:06;4.15;;;2.00;;
12493;SDS011;8260;51.422;6.786;2023-04-24T14:41:35;4.57;;;2.15;;
12493;SDS011;8260;51.422;6.786;2023-04-24T14:44:06;2.85;;;1.80;;
12493;SDS011;8260;51.422;6.786;2023-04-24T14:46:35;2.83;;;2.00;;
12493;SDS011;8260;51.422;6.786;2023-04-24T14:49:04;1.92;;;1.70;;
12493;SDS011;8260;51.422;6.786;2023-04-24T14:51:35;2.60;;;1.95;;
12493;SDS011;8260;51.422;6.786;2023-04-24T14:54:04;2.33;;;2.08;;
12493;SDS011;8260;51.422;6.786;2023-04-24T14:56:32;2.47;;;2.20;;
12493;SDS011;8260;51.422;6.786;2023-04-24T14:59:02;3.55;;;2.00;;
12493;SDS011;8260;51.422;6.786;2023-04-24T15:01:32;2.90;;;2.40;;
12493;SDS011;8260;51.422;6.786;2023-04-24T15:04:01;4.65;;;2.88;;
12493;SDS011;8260;51.422;6.786;2023-04-24T15:06:30;5.32;;;2.50;;